Time;durP1;ratioP1;P1;durP2;ratioP2;P2;SDS_P1;SDS_P2;PMS_P1;PMS_P2;Temp;Humidity;BMP_temperature;BMP_pressure;BME280_temperature;BME280_humidity;BME280_pressure;Samples;Min_cycle;Max_cycle;Signal;HPM_P1;HPM_P2
2022/04/08 00:00:41;;;;;;;15.45;7.68;;;6.70;99.90;;;;;;19867772;29;20139;-52
2022/04/08 00:10:44;;;;;;;12.75;7.32;;;6.60;99.90;;;;;;19820506;29;20047;-50
2022/04/08 00:20:47;;;;;;;12.80;6.82;;;6.60;99.90;;;;;;19839253;29;20066;-50
2022/04/08 00:31:00;;;;;;;10.07;4.93;;;6.60;99.90;;;;;;19872897;29;20074;-47
2022/04/08 00:41:03;;;;;;;9.55;4.82;;;6.70;99.90;;;;;;19849189;29;20043;-52
2022/04/08 00:51:06;;;;;;;8.95;5.13;;;6.90;99.90;;;;;;19824481;29;20119;-57
2022/04/08 01:01:10;;;;;;;7.13;4.05;;;7.20;99.90;;;;;;19857570;29;20051;-47
2022/04/08 01:11:12;;;;;;;5.57;3.38;;;7.30;99.90;;;;;;19839438;29;20576;-48
2022/04/08 01:21:15;;;;;;;9.18;4.28;;;7.00;99.90;;;;;;19854903;29;20070;-51
2022/04/08 01:31:18;;;;;;;8.50;3.55;;;7.40;99.90;;;;;;19846648;29;20133;-48
2022/04/08 01:41:20;;;;;;;5.55;3.20;;;7.80;99.90;;;;;;19857733;29;20104;-52
2022/04/08 01:51:24;;;;;;;6.45;3.28;;;8.40;99.90;;;;;;19805673;29;20043;-47
2022/04/08 02:01:28;;;;;;;7.45;3.70;;;8.60;99.90;;;;;;19844468;29;20074;-47
2022/04/08 02:11:31;;;;;;;8.15;3.95;;;8.70;99.90;;;;;;19876937;29;20043;-56
2022/04/08 02:21:34;;;;;;;5.32;3.13;;;9.00;99.90;;;;;;19806623;29;20407;-53
2022/04/08 02:31:38;;;;;;;5.38;3.30;;;8.90;99.90;;;;;;19805853;29;20104;-51
2022/04/08 02:41:41;;;;;;;4.07;2.13;;;8.60;99.90;;;;;;19850108;29;20071;-49
2022/04/08 02:51:43;;;;;;;4.65;2.22;;;8.60;99.90;;;;;;19805228;29;20043;-47
2022/04/08 03:01:46;;;;;;;3.20;1.65;;;8.50;99.90;;;;;;19850462;29;20050;-49
2022/04/08 03:11:49;;;;;;;2.90;1.50;;;8.60;99.90;;;;;;19832067;29;20419;-47
2022/04/08 03:21:51;;;;;;;2.33;1.02;;;8.60;99.90;;;;;;19816925;29;20092;-50
2022/04/08 03:31:54;;;;;;;1.00;0.40;;;8.60;99.90;;;;;;19801168;29;20405;-52
2022/04/08 03:41:57;;;;;;;2.63;0.85;;;8.50;98.90;;;;;;19823667;29;20051;-49
2022/04/08 03:52:00;;;;;;;2.45;0.60;;;8.20;99.90;;;;;;19857753;29;20051;-50
2022/04/08 04:02:05;;;;;;;2.38;0.50;;;7.40;99.90;;;;;;19875320;29;20444;-47
2022/04/08 04:12:09;;;;;;;2.60;0.82;;;6.70;99.90;;;;;;19810504;29;20503;-50
2022/04/08 04:22:11;;;;;;;1.27;0.40;;;6.20;99.90;;;;;;19829371;29;20412;-47
2022/04/08 04:32:14;;;;;;;1.35;0.47;;;6.10;99.90;;;;;;19857021;29;20066;-50
2022/04/08 04:42:17;;;;;;;1.05;0.52;;;6.30;99.90;;;;;;19869837;29;20503;-47
2022/04/08 04:52:19;;;;;;;1.75;0.50;;;6.10;99.90;;;;;;19884871;29;20051;-52
2022/04/08 05:02:22;;;;;;;1.40;0.50;;;6.50;99.90;;;;;;19887278;29;20084;-57
2022/04/08 05:12:24;;;;;;;1.63;0.63;;;6.40;99.90;;;;;;19874817;29;20123;-57
2022/04/08 05:22:26;;;;;;;1.45;0.40;;;6.40;99.90;;;;;;19846741;29;20092;-49
2022/04/08 05:32:29;;;;;;;1.05;0.30;;;6.70;99.90;;;;;;19807967;29;20043;-51
2022/04/08 05:42:32;;;;;;;0.38;0.20;;;7.90;99.00;;;;;;19825318;29;20050;-50
2022/04/08 05:52:35;;;;;;;0.50;0.40;;;8.20;96.40;;;;;;19870679;29;20111;-56
2022/04/08 06:02:38;;;;;;;0.90;0.30;;;9.40;95.80;;;;;;19883778;29;20092;-48
2022/04/08 06:12:40;;;;;;;0.20;0.10;;;8.70;97.20;;;;;;19839456;29;20051;-51
2022/04/08 06:22:43;;;;;;;5.43;2.25;;;9.20;92.90;;;;;;19856000;29;20047;-50
2022/04/08 06:32:45;;;;;;;3.70;1.17;;;9.10;99.90;;;;;;19851795;29;20043;-51
2022/04/08 06:42:48;;;;;;;5.93;2.83;;;8.00;99.90;;;;;;19852034;29;20072;-48
2022/04/08 06:52:51;;;;;;;7.28;2.85;;;8.40;99.90;;;;;;19879063;29;20082;-56
2022/04/08 07:02:54;;;;;;;9.00;3.60;;;9.40;99.90;;;;;;19877550;29;20043;-54
2022/04/08 07:12:56;;;;;;;5.40;3.30;;;9.60;99.90;;;;;;19837080;29;20376;-54
2022/04/08 07:23:03;;;;;;;7.55;2.83;;;9.90;99.90;;;;;;19802616;29;20043;-55
2022/04/08 07:33:06;;;;;;;7.10;3.72;;;10.70;99.90;;;;;;19801587;29;20078;-51
2022/04/08 07:43:10;;;;;;;9.40;4.50;;;11.40;99.90;;;;;;19854923;29;20480;-57
2022/04/08 07:53:13;;;;;;;13.25;8.02;;;10.30;99.90;;;;;;19849108;29;20107;-56
2022/04/08 08:03:19;;;;;;;12.52;7.45;;;9.30;99.90;;;;;;19874654;29;20068;-57
2022/04/08 08:13:22;;;;;;;13.90;7.25;;;9.60;99.90;;;;;;19874020;29;20078;-52
2022/04/08 08:23:25;;;;;;;11.00;6.28;;;10.30;99.90;;;;;;19803321;29;20090;-53
2022/04/08 08:33:27;;;;;;;12.15;6.97;;;11.40;99.90;;;;;;19798650;29;20047;-54
2022/04/08 08:43:31;;;;;;;8.60;5.78;;;11.90;99.90;;;;;;19798240;29;20043;-54
2022/04/08 08:53:34;;;;;;;11.02;6.25;;;12.90;99.90;;;;;;19798135;29;20048;-56
2022/04/08 09:03:37;;;;;;;8.32;5.10;;;13.60;99.90;;;;;;19797843;29;20108;-57
2022/04/08 09:13:46;;;;;;;12.38;5.90;;;13.80;99.90;;;;;;19782643;29;20047;-55
2022/04/08 09:23:48;;;;;;;11.63;4.82;;;14.30;99.90;;;;;;19804660;29;20560;-58
2022/04/08 09:33:53;;;;;;;11.05;5.43;;;14.20;99.90;;;;;;19811055;29;20039;-58
2022/04/08 09:44:00;;;;;;;11.48;5.70;;;14.00;99.90;;;;;;19813565;29;20148;-56
2022/04/08 09:54:05;;;;;;;5.88;3.67;;;14.40;99.90;;;;;;19808979;29;20441;-57
2022/04/08 10:04:09;;;;;;;5.38;3.35;;;15.10;99.90;;;;;;19846005;29;20043;-58
2022/04/08 10:14:38;;;;;;;8.35;3.75;;;15.30;99.90;;;;;;19880579;29;20139;-58
2022/04/08 10:24:55;;;;;;;5.70;3.95;;;15.60;99.90;;;;;;19806855;29;20039;-55
2022/04/08 10:34:57;;;;;;;10.43;5.88;;;15.40;99.90;;;;;;19805754;29;20179;-53
2022/04/08 10:45:14;;;;;;;10.63;5.32;;;15.20;99.90;;;;;;19805498;29;20051;-58
2022/04/08 10:55:17;;;;;;;10.40;4.40;;;15.30;99.90;;;;;;19838732;29;20127;-58
2022/04/08 11:05:20;;;;;;;6.97;3.60;;;15.50;99.90;;;;;;19831321;29;20035;-58
2022/04/08 11:15:25;;;;;;;9.90;3.95;;;15.40;99.90;;;;;;19867388;29;20120;-58
2022/04/08 11:25:31;;;;;;;7.90;4.20;;;15.60;99.90;;;;;;19802740;29;20092;-58
2022/04/08 11:35:34;;;;;;;7.53;4.22;;;16.10;99.90;;;;;;19824928;29;20035;-55
2022/04/08 11:45:38;;;;;;;9.13;5.00;;;16.10;99.90;;;;;;19803100;29;20100;-59
2022/04/08 11:55:40;;;;;;;8.25;4.43;;;16.70;99.90;;;;;;19869024;29;20423;-58
2022/04/08 12:05:47;;;;;;;6.97;4.15;;;16.40;98.50;;;;;;19874469;29;20039;-57
2022/04/08 12:15:54;;;;;;;8.88;3.65;;;16.40;98.80;;;;;;19813721;29;20074;-58
2022/04/08 12:26:05;;;;;;;12.63;4.47;;;15.80;98.30;;;;;;19844318;29;20031;-55
2022/04/08 12:36:10;;;;;;;13.30;5.07;;;15.30;99.90;;;;;;19862343;29;20040;-54
2022/04/08 12:46:13;;;;;;;9.23;5.30;;;15.90;99.80;;;;;;19835554;29;20592;-58
2022/04/08 12:56:17;;;;;;;10.57;5.25;;;14.60;99.90;;;;;;19872328;29;20489;-57
2022/04/08 13:06:19;;;;;;;9.75;5.25;;;14.70;99.90;;;;;;19813730;29;20092;-58
2022/04/08 13:16:22;;;;;;;9.10;4.32;;;15.20;99.90;;;;;;19811501;29;20104;-58
2022/04/08 13:26:26;;;;;;;7.63;3.30;;;16.00;99.90;;;;;;19810938;29;20043;-58
2022/04/08 13:36:29;;;;;;;10.88;5.25;;;15.00;99.90;;;;;;19810316;29;20107;-57
2022/04/08 13:46:33;;;;;;;10.95;5.10;;;14.60;99.90;;;;;;19836441;29;20043;-58
2022/04/08 13:56:35;;;;;;;12.07;5.10;;;13.60;99.90;;;;;;19859391;29;20499;-58
2022/04/08 14:06:38;;;;;;;12.73;7.10;;;13.70;99.90;;;;;;19822232;29;20101;-58
2022/04/08 14:16:43;;;;;;;10.88;6.13;;;13.50;99.90;;;;;;19819087;29;20043;-58
2022/04/08 14:26:46;;;;;;;13.32;6.65;;;13.10;99.90;;;;;;19851299;29;20487;-58
2022/04/08 14:36:49;;;;;;;17.70;7.72;;;12.90;99.90;;;;;;19837332;29;20043;-51
2022/04/08 14:46:52;;;;;;;19.25;9.48;;;12.40;99.90;;;;;;19825368;29;20460;-53
2022/04/08 14:56:55;;;;;;;16.40;9.35;;;12.00;99.90;;;;;;19879401;29;20088;-49
2022/04/08 15:06:58;;;;;;;17.02;8.73;;;11.40;99.90;;;;;;19871649;29;20127;-51
2022/04/08 15:17:00;;;;;;;16.92;9.90;;;11.30;99.90;;;;;;19852474;29;20047;-49
2022/04/08 15:27:03;;;;;;;21.92;9.55;;;11.00;99.90;;;;;;19801906;29;20100;-50
2022/04/08 15:37:07;;;;;;;22.50;9.00;;;10.90;99.90;;;;;;19863304;29;20111;-49
2022/04/08 15:47:10;;;;;;;14.60;7.53;;;10.90;99.90;;;;;;19861490;29;20051;-51
2022/04/08 15:57:13;;;;;;;15.38;8.57;;;10.80;99.90;;;;;;19849884;29;20088;-50
2022/04/08 16:07:15;;;;;;;13.00;7.18;;;10.70;99.90;;;;;;19834074;29;20072;-49
2022/04/08 16:17:18;;;;;;;13.18;6.70;;;10.60;99.90;;;;;;19803039;29;20120;-50
2022/04/08 16:27:20;;;;;;;14.13;7.65;;;10.60;99.90;;;;;;19800096;29;20051;-48
2022/04/08 16:37:23;;;;;;;11.88;6.55;;;10.60;99.90;;;;;;19806051;29;20639;-49
2022/04/08 16:47:27;;;;;;;14.63;6.57;;;10.50;99.90;;;;;;19813703;29;20139;-50
2022/04/08 16:57:29;;;;;;;15.80;6.95;;;10.30;99.90;;;;;;19827879;29;20472;-52
2022/04/08 17:07:32;;;;;;;11.63;6.22;;;10.20;99.90;;;;;;19869797;29;20072;-52
2022/04/08 17:17:35;;;;;;;9.73;4.68;;;10.10;99.90;;;;;;19882417;29;20076;-53
2022/04/08 17:27:38;;;;;;;9.45;3.38;;;10.10;99.90;;;;;;19876032;29;20081;-52
2022/04/08 17:37:40;;;;;;;5.55;2.50;;;9.90;99.90;;;;;;19819737;29;20042;-53
2022/04/08 17:47:44;;;;;;;5.82;1.73;;;9.80;99.90;;;;;;19879367;29;20146;-51
2022/04/08 17:57:47;;;;;;;7.35;1.77;;;9.80;99.90;;;;;;19883248;29;20050;-58
2022/04/08 18:07:50;;;;;;;6.82;1.67;;;9.70;99.90;;;;;;19849595;29;20518;-51
2022/04/08 18:17:52;;;;;;;10.65;1.67;;;9.60;99.90;;;;;;19819082;29;20051;-51
2022/04/08 18:27:55;;;;;;;4.80;1.42;;;9.60;99.90;;;;;;19807175;29;20070;-50
2022/04/08 18:37:59;;;;;;;6.10;1.30;;;9.50;99.90;;;;;;19848971;29;20100;-58
2022/04/08 18:48:02;;;;;;;10.27;1.73;;;9.40;99.90;;;;;;19845876;29;20035;-57
2022/04/08 18:58:05;;;;;;;12.80;2.25;;;9.30;99.90;;;;;;19852862;29;20138;-48
2022/04/08 19:08:08;;;;;;;4.82;1.27;;;9.20;99.90;;;;;;19833256;29;20352;-57
2022/04/08 19:18:12;;;;;;;7.70;1.92;;;9.00;99.90;;;;;;19838553;29;20428;-48
2022/04/08 19:28:14;;;;;;;13.68;1.73;;;8.90;99.90;;;;;;19836635;29;20100;-57
2022/04/08 19:38:18;;;;;;;10.02;2.40;;;8.80;99.90;;;;;;19874905;29;20415;-57
2022/04/08 19:48:22;;;;;;;8.40;2.42;;;8.70;99.90;;;;;;19831301;29;20074;-51
2022/04/08 19:58:25;;;;;;;7.25;1.85;;;8.50;99.90;;;;;;19837484;29;20115;-50
2022/04/08 20:08:30;;;;;;;7.88;2.30;;;8.30;99.90;;;;;;19861538;29;20560;-57
2022/04/08 20:18:33;;;;;;;10.13;2.65;;;8.20;99.90;;;;;;19821965;29;20104;-57
2022/04/08 20:28:36;;;;;;;14.35;2.80;;;8.00;99.90;;;;;;19863462;29;20329;-52
2022/04/08 20:38:39;;;;;;;8.40;2.42;;;7.90;99.90;;;;;;19790148;29;20082;-57
2022/04/08 20:48:43;;;;;;;14.98;2.72;;;7.80;99.90;;;;;;19774796;29;20149;-49
2022/04/08 20:58:45;;;;;;;13.02;2.50;;;7.70;99.90;;;;;;19774307;29;20527;-49
2022/04/08 21:08:49;;;;;;;8.43;2.33;;;7.60;99.90;;;;;;19774198;29;20549;-49
2022/04/08 21:18:57;;;;;;;11.65;3.22;;;7.90;99.90;;;;;;19805935;29;20147;-50
2022/04/08 21:28:59;;;;;;;12.93;2.80;;;8.10;99.90;;;;;;19821303;29;20157;-49
2022/04/08 21:39:04;;;;;;;10.18;3.25;;;8.20;99.90;;;;;;19811557;29;20107;-49
2022/04/08 21:49:09;;;;;;;9.25;3.10;;;8.40;99.90;;;;;;19810718;29;20136;-57
2022/04/08 21:59:11;;;;;;;11.90;3.45;;;8.60;99.90;;;;;;19865313;29;20055;-49
2022/04/08 22:09:14;;;;;;;9.90;3.15;;;8.70;99.90;;;;;;19809663;29;20067;-51
2022/04/08 22:19:16;;;;;;;8.57;3.00;;;8.70;99.90;;;;;;19834755;29;20567;-57
2022/04/08 22:29:19;;;;;;;10.10;2.55;;;8.80;99.90;;;;;;19851614;29;20173;-57
2022/04/08 22:39:22;;;;;;;9.80;2.90;;;8.90;99.90;;;;;;19816815;29;20071;-49
2022/04/08 22:49:25;;;;;;;7.75;2.90;;;8.90;99.90;;;;;;19781864;29;20074;-48
2022/04/08 22:59:28;;;;;;;8.73;2.67;;;8.80;99.90;;;;;;19781284;29;20527;-57
2022/04/08 23:09:31;;;;;;;11.15;3.92;;;9.10;99.90;;;;;;19804829;29;20086;-57
2022/04/08 23:19:33;;;;;;;8.60;3.70;;;8.80;99.90;;;;;;19851168;29;20058;-49
2022/04/08 23:29:36;;;;;;;11.95;4.85;;;8.80;99.90;;;;;;19877042;29;20498;-49
2022/04/08 23:39:38;;;;;;;7.55;3.30;;;8.90;99.90;;;;;;19861307;29;20047;-57
2022/04/08 23:49:41;;;;;;;9.48;3.20;;;8.50;99.90;;;;;;19860397;29;20123;-57
2022/04/08 23:59:44;;;;;;;7.40;1.88;;;8.60;99.90;;;;;;19829809;29;20058;-52
